sensor_id;sensor_type;location;lat;lon;timestamp;temperature;humidity
8892;DHT22;4482;54.332;10.118;2022-09-09T00:01:41;14.00;99.90
8892;DHT22;4482;54.332;10.118;2022-09-09T00:04:13;14.00;99.90
8892;DHT22;4482;54.332;10.118;2022-09-09T00:06:45;14.00;99.90
8892;DHT22;4482;54.332;10.118;2022-09-09T00:09:13;14.00;99.90
8892;DHT22;4482;54.332;10.118;2022-09-09T00:11:45;14.00;99.90
8892;DHT22;4482;54.332;10.118;2022-09-09T00:14:18;14.10;99.90
8892;DHT22;4482;54.332;10.118;2022-09-09T00:16:52;14.10;99.90
8892;DHT22;4482;54.332;10.118;2022-09-09T00:19:24;14.10;99.90
8892;DHT22;4482;54.332;10.118;2022-09-09T00:22:00;14.10;99.90
8892;DHT22;4482;54.332;10.118;2022-09-09T00:24:38;14.10;99.90
8892;DHT22;4482;54.332;10.118;2022-09-09T00:27:09;14.10;99.90
8892;DHT22;4482;54.332;10.118;2022-09-09T00:29:43;14.10;99.90
8892;DHT22;4482;54.332;10.118;2022-09-09T00:32:16;14.10;99.90
8892;DHT22;4482;54.332;10.118;2022-09-09T00:34:48;14.10;99.90
8892;DHT22;4482;54.332;10.118;2022-09-09T00:37:15;14.10;99.90
8892;DHT22;4482;54.332;10.118;2022-09-09T00:39:45;14.10;99.90
8892;DHT22;4482;54.332;10.118;2022-09-09T00:42:15;14.20;99.90
8892;DHT22;4482;54.332;10.118;2022-09-09T00:44:58;14.10;99.90
8892;DHT22;4482;54.332;10.118;2022-09-09T00:47:43;14.10;99.90
8892;DHT22;4482;54.332;10.118;2022-09-09T00:50:31;14.20;99.90
8892;DHT22;4482;54.332;10.118;2022-09-09T00:53:17;14.20;99.90
8892;DHT22;4482;54.332;10.118;2022-09-09T00:55:49;14.20;99.90
8892;DHT22;4482;54.332;10.118;2022-09-09T00:58:18;14.20;99.90
8892;DHT22;4482;54.332;10.118;2022-09-09T01:00:50;14.20;99.90
8892;DHT22;4482;54.332;10.118;2022-09-09T01:03:28;14.20;99.90
8892;DHT22;4482;54.332;10.118;2022-09-09T01:06:11;14.20;99.90
8892;DHT22;4482;54.332;10.118;2022-09-09T01:09:10;14.20;99.90
8892;DHT22;4482;54.332;10.118;2022-09-09T01:11:49;14.20;99.90
8892;DHT22;4482;54.332;10.118;2022-09-09T01:14:30;14.30;99.90
8892;DHT22;4482;54.332;10.118;2022-09-09T01:17:05;14.20;99.90
8892;DHT22;4482;54.332;10.118;2022-09-09T01:19:45;14.20;99.90
8892;DHT22;4482;54.332;10.118;2022-09-09T01:22:22;14.20;99.90
8892;DHT22;4482;54.332;10.118;2022-09-09T01:25:22;14.20;99.90
8892;DHT22;4482;54.332;10.118;2022-09-09T01:27:56;14.20;99.90
8892;DHT22;4482;54.332;10.118;2022-09-09T01:30:26;14.20;99.90
8892;DHT22;4482;54.332;10.118;2022-09-09T01:32:55;14.20;99.90
8892;DHT22;4482;54.332;10.118;2022-09-09T01:35:42;14.20;99.90
8892;DHT22;4482;54.332;10.118;2022-09-09T01:38:10;14.20;99.90
8892;DHT22;4482;54.332;10.118;2022-09-09T01:40:39;14.20;99.90
8892;DHT22;4482;54.332;10.118;2022-09-09T01:43:07;14.20;99.90
8892;DHT22;4482;54.332;10.118;2022-09-09T01:45:34;14.20;99.90
8892;DHT22;4482;54.332;10.118;2022-09-09T01:48:02;14.20;99.90
8892;DHT22;4482;54.332;10.118;2022-09-09T01:50:29;14.20;99.90
8892;DHT22;4482;54.332;10.118;2022-09-09T01:52:58;14.20;99.90
8892;DHT22;4482;54.332;10.118;2022-09-09T01:55:40;14.20;99.90
8892;DHT22;4482;54.332;10.118;2022-09-09T01:58:43;14.20;99.90
8892;DHT22;4482;54.332;10.118;2022-09-09T02:01:33;14.20;99.90
8892;DHT22;4482;54.332;10.118;2022-09-09T02:04:13;14.30;99.90
8892;DHT22;4482;54.332;10.118;2022-09-09T02:09:57;14.20;99.90
8892;DHT22;4482;54.332;10.118;2022-09-09T02:12:49;14.20;99.90
8892;DHT22;4482;54.332;10.118;2022-09-09T02:15:36;14.20;99.90
8892;DHT22;4482;54.332;10.118;2022-09-09T02:18:34;14.20;99.90
8892;DHT22;4482;54.332;10.118;2022-09-09T02:21:38;14.20;99.90
8892;DHT22;4482;54.332;10.118;2022-09-09T02:24:26;14.20;99.90
8892;DHT22;4482;54.332;10.118;2022-09-09T02:27:09;14.20;99.90
8892;DHT22;4482;54.332;10.118;2022-09-09T02:29:40;14.20;99.90
8892;DHT22;4482;54.332;10.118;2022-09-09T02:32:12;14.30;99.90
8892;DHT22;4482;54.332;10.118;2022-09-09T02:34:49;14.30;99.90
8892;DHT22;4482;54.332;10.118;2022-09-09T02:37:39;14.30;99.90
8892;DHT22;4482;54.332;10.118;2022-09-09T02:40:14;14.30;99.90
8892;DHT22;4482;54.332;10.118;2022-09-09T02:43:15;14.20;99.90
8892;DHT22;4482;54.332;10.118;2022-09-09T03:10:00;14.20;99.90
8892;DHT22;4482;54.332;10.118;2022-09-09T03:12:32;14.20;99.90
8892;DHT22;4482;54.332;10.118;2022-09-09T03:15:40;14.20;99.90
8892;DHT22;4482;54.332;10.118;2022-09-09T03:18:13;14.20;99.90
8892;DHT22;4482;54.332;10.118;2022-09-09T03:20:55;14.20;99.90
8892;DHT22;4482;54.332;10.118;2022-09-09T03:36:52;14.20;99.90
8892;DHT22;4482;54.332;10.118;2022-09-09T03:43:24;14.20;99.90
8892;DHT22;4482;54.332;10.118;2022-09-09T03:45:59;14.20;99.90
8892;DHT22;4482;54.332;10.118;2022-09-09T03:48:27;14.20;99.90
8892;DHT22;4482;54.332;10.118;2022-09-09T03:50:59;14.20;99.90
8892;DHT22;4482;54.332;10.118;2022-09-09T04:00:34;14.10;99.90
8892;DHT22;4482;54.332;10.118;2022-09-09T04:03:05;14.10;99.90
8892;DHT22;4482;54.332;10.118;2022-09-09T04:06:24;14.10;99.90
8892;DHT22;4482;54.332;10.118;2022-09-09T04:08:58;14.10;99.90
8892;DHT22;4482;54.332;10.118;2022-09-09T04:15:18;14.10;99.90
8892;DHT22;4482;54.332;10.118;2022-09-09T04:18:08;14.10;99.90
8892;DHT22;4482;54.332;10.118;2022-09-09T04:21:29;14.10;99.90
8892;DHT22;4482;54.332;10.118;2022-09-09T04:24:33;14.00;99.90
8892;DHT22;4482;54.332;10.118;2022-09-09T04:27:01;14.00;99.90
8892;DHT22;4482;54.332;10.118;2022-09-09T04:29:36;14.00;99.90
8892;DHT22;4482;54.332;10.118;2022-09-09T04:32:06;14.00;99.90
8892;DHT22;4482;54.332;10.118;2022-09-09T04:44:47;13.90;99.90
8892;DHT22;4482;54.332;10.118;2022-09-09T04:47:55;14.00;99.90
8892;DHT22;4482;54.332;10.118;2022-09-09T04:50:29;14.00;99.90
8892;DHT22;4482;54.332;10.118;2022-09-09T04:56:38;14.10;99.90
8892;DHT22;4482;54.332;10.118;2022-09-09T04:59:31;14.00;99.90
8892;DHT22;4482;54.332;10.118;2022-09-09T05:02:06;14.00;99.90
8892;DHT22;4482;54.332;10.118;2022-09-09T05:04:36;14.00;99.90
8892;DHT22;4482;54.332;10.118;2022-09-09T05:07:05;14.00;99.90
8892;DHT22;4482;54.332;10.118;2022-09-09T05:09:41;14.00;99.90
8892;DHT22;4482;54.332;10.118;2022-09-09T05:12:18;14.00;99.90
8892;DHT22;4482;54.332;10.118;2022-09-09T05:14:47;14.00;99.90
8892;DHT22;4482;54.332;10.118;2022-09-09T05:17:23;14.00;99.90
8892;DHT22;4482;54.332;10.118;2022-09-09T05:20:01;14.00;99.90
8892;DHT22;4482;54.332;10.118;2022-09-09T05:22:54;14.00;99.90
8892;DHT22;4482;54.332;10.118;2022-09-09T05:25:25;14.10;99.90
8892;DHT22;4482;54.332;10.118;2022-09-09T05:28:40;14.10;99.90
8892;DHT22;4482;54.332;10.118;2022-09-09T05:31:15;14.10;99.90
8892;DHT22;4482;54.332;10.118;2022-09-09T05:33:58;14.10;99.90
8892;DHT22;4482;54.332;10.118;2022-09-09T05:39:53;14.20;99.90
8892;DHT22;4482;54.332;10.118;2022-09-09T05:42:47;14.20;99.90
8892;DHT22;4482;54.332;10.118;2022-09-09T06:16:26;14.30;99.90
8892;DHT22;4482;54.332;10.118;2022-09-09T06:19:13;14.30;99.90
8892;DHT22;4482;54.332;10.118;2022-09-09T06:25:19;14.40;99.90
8892;DHT22;4482;54.332;10.118;2022-09-09T06:31:32;14.50;99.90
8892;DHT22;4482;54.332;10.118;2022-09-09T06:34:42;14.50;99.90
8892;DHT22;4482;54.332;10.118;2022-09-09T06:37:50;14.50;99.90
8892;DHT22;4482;54.332;10.118;2022-09-09T06:40:46;14.60;99.90
8892;DHT22;4482;54.332;10.118;2022-09-09T06:44:09;14.60;99.90
8892;DHT22;4482;54.332;10.118;2022-09-09T06:47:06;14.60;99.90
8892;DHT22;4482;54.332;10.118;2022-09-09T06:49:48;14.60;99.90
8892;DHT22;4482;54.332;10.118;2022-09-09T07:02:14;14.80;99.90
8892;DHT22;4482;54.332;10.118;2022-09-09T07:05:17;14.90;99.90
8892;DHT22;4482;54.332;10.118;2022-09-09T07:07:43;15.00;99.90
8892;DHT22;4482;54.332;10.118;2022-09-09T07:10:10;15.10;99.90
8892;DHT22;4482;54.332;10.118;2022-09-09T07:12:37;15.40;99.90
8892;DHT22;4482;54.332;10.118;2022-09-09T07:15:05;15.60;99.90
8892;DHT22;4482;54.332;10.118;2022-09-09T07:17:33;15.80;99.90
8892;DHT22;4482;54.332;10.118;2022-09-09T07:20:01;15.90;99.90
8892;DHT22;4482;54.332;10.118;2022-09-09T07:22:29;16.10;99.90
8892;DHT22;4482;54.332;10.118;2022-09-09T07:24:56;16.20;99.90
8892;DHT22;4482;54.332;10.118;2022-09-09T07:27:23;16.40;99.90
8892;DHT22;4482;54.332;10.118;2022-09-09T07:29:49;16.50;99.90
8892;DHT22;4482;54.332;10.118;2022-09-09T07:35:17;16.90;99.90
8892;DHT22;4482;54.332;10.118;2022-09-09T07:37:44;16.80;99.90
8892;DHT22;4482;54.332;10.118;2022-09-09T07:40:11;16.80;99.90
8892;DHT22;4482;54.332;10.118;2022-09-09T07:42:38;16.80;99.90
8892;DHT22;4482;54.332;10.118;2022-09-09T07:45:05;16.90;99.90
8892;DHT22;4482;54.332;10.118;2022-09-09T07:47:32;16.90;99.90
8892;DHT22;4482;54.332;10.118;2022-09-09T07:49:59;16.90;99.90
8892;DHT22;4482;54.332;10.118;2022-09-09T07:52:27;16.80;99.90
8892;DHT22;4482;54.332;10.118;2022-09-09T07:54:54;16.80;99.90
8892;DHT22;4482;54.332;10.118;2022-09-09T07:57:22;16.90;99.90
8892;DHT22;4482;54.332;10.118;2022-09-09T07:59:48;17.10;99.90
8892;DHT22;4482;54.332;10.118;2022-09-09T08:02:16;17.30;99.90
8892;DHT22;4482;54.332;10.118;2022-09-09T08:04:42;17.90;99.90
8892;DHT22;4482;54.332;10.118;2022-09-09T08:07:09;18.40;99.90
8892;DHT22;4482;54.332;10.118;2022-09-09T08:09:38;18.70;99.90
8892;DHT22;4482;54.332;10.118;2022-09-09T08:12:05;19.40;99.90
8892;DHT22;4482;54.332;10.118;2022-09-09T08:14:34;20.00;99.90
8892;DHT22;4482;54.332;10.118;2022-09-09T08:17:01;20.40;99.90
8892;DHT22;4482;54.332;10.118;2022-09-09T08:19:28;20.80;99.90
8892;DHT22;4482;54.332;10.118;2022-09-09T08:21:56;20.70;99.90
8892;DHT22;4482;54.332;10.118;2022-09-09T08:24:27;20.80;99.90
8892;DHT22;4482;54.332;10.118;2022-09-09T08:26:55;21.60;99.90
8892;DHT22;4482;54.332;10.118;2022-09-09T08:29:23;22.60;99.90
8892;DHT22;4482;54.332;10.118;2022-09-09T08:31:52;23.60;99.90
8892;DHT22;4482;54.332;10.118;2022-09-09T08:34:20;24.20;99.90
8892;DHT22;4482;54.332;10.118;2022-09-09T08:36:49;24.00;99.90
8892;DHT22;4482;54.332;10.118;2022-09-09T08:39:17;24.40;99.90
8892;DHT22;4482;54.332;10.118;2022-09-09T08:45:03;24.30;99.90
8892;DHT22;4482;54.332;10.118;2022-09-09T08:47:39;25.80;99.90
8892;DHT22;4482;54.332;10.118;2022-09-09T08:50:20;27.00;99.90
8892;DHT22;4482;54.332;10.118;2022-09-09T08:52:54;27.10;99.90
8892;DHT22;4482;54.332;10.118;2022-09-09T08:55:28;25.90;99.90
8892;DHT22;4482;54.332;10.118;2022-09-09T08:58:08;25.20;99.90
8892;DHT22;4482;54.332;10.118;2022-09-09T09:00:45;23.80;99.90
8892;DHT22;4482;54.332;10.118;2022-09-09T09:03:21;22.10;99.90
8892;DHT22;4482;54.332;10.118;2022-09-09T09:05:56;20.80;99.90
8892;DHT22;4482;54.332;10.118;2022-09-09T09:08:27;20.10;99.90
8892;DHT22;4482;54.332;10.118;2022-09-09T09:10:58;19.70;99.90
8892;DHT22;4482;54.332;10.118;2022-09-09T09:13:31;19.30;99.90
8892;DHT22;4482;54.332;10.118;2022-09-09T09:16:07;19.20;99.90
8892;DHT22;4482;54.332;10.118;2022-09-09T09:18:38;19.10;99.90
8892;DHT22;4482;54.332;10.118;2022-09-09T09:21:11;18.90;99.90
8892;DHT22;4482;54.332;10.118;2022-09-09T09:23:45;18.90;99.90
8892;DHT22;4482;54.332;10.118;2022-09-09T09:26:14;19.20;99.90
8892;DHT22;4482;54.332;10.118;2022-09-09T09:28:41;20.00;99.90
8892;DHT22;4482;54.332;10.118;2022-09-09T09:31:11;21.10;99.90
8892;DHT22;4482;54.332;10.118;2022-09-09T09:33:46;21.90;99.90
8892;DHT22;4482;54.332;10.118;2022-09-09T09:36:13;22.60;99.90
8892;DHT22;4482;54.332;10.118;2022-09-09T09:38:52;23.30;99.90
8892;DHT22;4482;54.332;10.118;2022-09-09T09:41:29;23.30;99.90
8892;DHT22;4482;54.332;10.118;2022-09-09T09:43:56;24.30;99.90
8892;DHT22;4482;54.332;10.118;2022-09-09T09:46:25;25.00;99.90
8892;DHT22;4482;54.332;10.118;2022-09-09T09:48:59;24.10;99.90
8892;DHT22;4482;54.332;10.118;2022-09-09T09:51:28;23.40;99.90
8892;DHT22;4482;54.332;10.118;2022-09-09T09:54:07;22.70;99.90
8892;DHT22;4482;54.332;10.118;2022-09-09T09:56:35;22.20;99.90
8892;DHT22;4482;54.332;10.118;2022-09-09T09:59:03;22.30;99.90
8892;DHT22;4482;54.332;10.118;2022-09-09T10:01:34;23.70;99.90
8892;DHT22;4482;54.332;10.118;2022-09-09T10:04:14;24.60;99.90
8892;DHT22;4482;54.332;10.118;2022-09-09T10:06:41;24.20;99.90
8892;DHT22;4482;54.332;10.118;2022-09-09T10:09:21;23.50;99.90
8892;DHT22;4482;54.332;10.118;2022-09-09T10:11:55;22.80;99.90
8892;DHT22;4482;54.332;10.118;2022-09-09T10:14:29;24.00;99.90
8892;DHT22;4482;54.332;10.118;2022-09-09T10:17:17;25.70;99.90
8892;DHT22;4482;54.332;10.118;2022-09-09T10:19:58;25.60;99.90
8892;DHT22;4482;54.332;10.118;2022-09-09T10:22:28;24.40;99.90
8892;DHT22;4482;54.332;10.118;2022-09-09T10:25:10;25.00;99.90
8892;DHT22;4482;54.332;10.118;2022-09-09T10:27:47;25.20;99.90
8892;DHT22;4482;54.332;10.118;2022-09-09T10:30:30;25.40;99.90
8892;DHT22;4482;54.332;10.118;2022-09-09T10:33:12;26.20;99.90
8892;DHT22;4482;54.332;10.118;2022-09-09T10:36:03;27.50;99.90
8892;DHT22;4482;54.332;10.118;2022-09-09T10:38:39;28.10;99.90
8892;DHT22;4482;54.332;10.118;2022-09-09T10:41:36;26.80;99.90
8892;DHT22;4482;54.332;10.118;2022-09-09T10:44:17;25.30;99.90
8892;DHT22;4482;54.332;10.118;2022-09-09T10:46:57;26.40;99.90
8892;DHT22;4482;54.332;10.118;2022-09-09T10:49:45;27.30;99.90
8892;DHT22;4482;54.332;10.118;2022-09-09T10:52:26;26.90;99.90
8892;DHT22;4482;54.332;10.118;2022-09-09T10:55:13;26.90;99.90
8892;DHT22;4482;54.332;10.118;2022-09-09T10:57:44;26.00;99.90
8892;DHT22;4482;54.332;10.118;2022-09-09T11:00:35;24.90;99.90
8892;DHT22;4482;54.332;10.118;2022-09-09T11:03:17;23.80;99.90
8892;DHT22;4482;54.332;10.118;2022-09-09T11:06:04;22.90;99.90
8892;DHT22;4482;54.332;10.118;2022-09-09T11:08:35;22.40;99.90
8892;DHT22;4482;54.332;10.118;2022-09-09T11:11:09;22.10;99.90
8892;DHT22;4482;54.332;10.118;2022-09-09T11:13:42;22.00;99.90
8892;DHT22;4482;54.332;10.118;2022-09-09T11:16:20;22.10;99.90
8892;DHT22;4482;54.332;10.118;2022-09-09T11:18:57;22.00;99.90
8892;DHT22;4482;54.332;10.118;2022-09-09T11:21:39;21.90;99.90
8892;DHT22;4482;54.332;10.118;2022-09-09T11:24:13;21.90;99.90
8892;DHT22;4482;54.332;10.118;2022-09-09T11:26:45;22.00;99.90
8892;DHT22;4482;54.332;10.118;2022-09-09T11:29:38;22.20;99.90
8892;DHT22;4482;54.332;10.118;2022-09-09T11:32:29;22.50;99.90
8892;DHT22;4482;54.332;10.118;2022-09-09T11:35:14;22.50;99.90
8892;DHT22;4482;54.332;10.118;2022-09-09T11:38:06;22.50;99.90
8892;DHT22;4482;54.332;10.118;2022-09-09T11:40:36;22.20;99.90
8892;DHT22;4482;54.332;10.118;2022-09-09T11:43:08;21.90;99.90
8892;DHT22;4482;54.332;10.118;2022-09-09T11:45:39;21.60;99.90
8892;DHT22;4482;54.332;10.118;2022-09-09T11:48:23;21.50;99.90
8892;DHT22;4482;54.332;10.118;2022-09-09T11:50:58;21.50;99.90
8892;DHT22;4482;54.332;10.118;2022-09-09T11:53:27;21.60;99.90
8892;DHT22;4482;54.332;10.118;2022-09-09T11:56:02;21.60;99.90
8892;DHT22;4482;54.332;10.118;2022-09-09T11:58:38;21.60;99.90
8892;DHT22;4482;54.332;10.118;2022-09-09T12:01:25;21.50;99.90
8892;DHT22;4482;54.332;10.118;2022-09-09T12:04:09;21.40;99.90
8892;DHT22;4482;54.332;10.118;2022-09-09T12:06:43;21.30;99.90
8892;DHT22;4482;54.332;10.118;2022-09-09T12:09:20;21.20;99.90
8892;DHT22;4482;54.332;10.118;2022-09-09T12:11:48;21.30;99.90
8892;DHT22;4482;54.332;10.118;2022-09-09T12:14:35;21.10;99.90
8892;DHT22;4482;54.332;10.118;2022-09-09T12:17:10;21.00;99.90
8892;DHT22;4482;54.332;10.118;2022-09-09T12:19:44;21.10;99.90
8892;DHT22;4482;54.332;10.118;2022-09-09T12:22:17;21.30;99.90
8892;DHT22;4482;54.332;10.118;2022-09-09T12:24:53;21.40;99.90
8892;DHT22;4482;54.332;10.118;2022-09-09T12:27:25;21.40;99.90
8892;DHT22;4482;54.332;10.118;2022-09-09T12:29:57;21.30;99.90
8892;DHT22;4482;54.332;10.118;2022-09-09T12:32:26;21.10;99.90
8892;DHT22;4482;54.332;10.118;2022-09-09T12:34:55;21.00;99.90
8892;DHT22;4482;54.332;10.118;2022-09-09T12:37:29;20.80;99.90
8892;DHT22;4482;54.332;10.118;2022-09-09T12:39:59;20.60;99.90
8892;DHT22;4482;54.332;10.118;2022-09-09T12:42:28;20.60;99.90
8892;DHT22;4482;54.332;10.118;2022-09-09T12:44:57;20.70;99.90
8892;DHT22;4482;54.332;10.118;2022-09-09T12:47:30;20.80;99.90
8892;DHT22;4482;54.332;10.118;2022-09-09T12:49:58;21.00;99.90
8892;DHT22;4482;54.332;10.118;2022-09-09T12:52:30;21.00;99.90
8892;DHT22;4482;54.332;10.118;2022-09-09T12:55:01;20.90;99.90
8892;DHT22;4482;54.332;10.118;2022-09-09T12:57:34;20.80;99.90
8892;DHT22;4482;54.332;10.118;2022-09-09T13:00:07;20.70;99.90
8892;DHT22;4482;54.332;10.118;2022-09-09T13:02:46;20.60;99.90
8892;DHT22;4482;54.332;10.118;2022-09-09T13:05:15;20.50;99.90
8892;DHT22;4482;54.332;10.118;2022-09-09T13:07:43;20.40;99.90
8892;DHT22;4482;54.332;10.118;2022-09-09T13:10:13;20.50;99.90
8892;DHT22;4482;54.332;10.118;2022-09-09T13:12:41;20.80;99.90
8892;DHT22;4482;54.332;10.118;2022-09-09T13:15:19;21.10;99.90
8892;DHT22;4482;54.332;10.118;2022-09-09T13:17:56;21.30;99.90
8892;DHT22;4482;54.332;10.118;2022-09-09T13:20:24;21.40;99.90
8892;DHT22;4482;54.332;10.118;2022-09-09T13:22:52;21.40;99.90
8892;DHT22;4482;54.332;10.118;2022-09-09T13:25:26;21.30;99.90
8892;DHT22;4482;54.332;10.118;2022-09-09T13:27:56;21.30;99.90
8892;DHT22;4482;54.332;10.118;2022-09-09T13:30:25;21.10;99.90
8892;DHT22;4482;54.332;10.118;2022-09-09T13:33:20;21.00;99.90
8892;DHT22;4482;54.332;10.118;2022-09-09T13:35:50;20.80;99.90
8892;DHT22;4482;54.332;10.118;2022-09-09T13:38:19;20.60;99.90
8892;DHT22;4482;54.332;10.118;2022-09-09T13:40:56;20.60;99.90
8892;DHT22;4482;54.332;10.118;2022-09-09T13:43:27;20.60;99.90
8892;DHT22;4482;54.332;10.118;2022-09-09T13:45:57;20.70;99.90
8892;DHT22;4482;54.332;10.118;2022-09-09T13:48:25;20.70;99.90
8892;DHT22;4482;54.332;10.118;2022-09-09T13:51:03;20.80;99.90
8892;DHT22;4482;54.332;10.118;2022-09-09T13:53:31;20.80;99.90
8892;DHT22;4482;54.332;10.118;2022-09-09T13:56:00;20.80;99.90
8892;DHT22;4482;54.332;10.118;2022-09-09T13:58:27;20.70;99.90
8892;DHT22;4482;54.332;10.118;2022-09-09T14:00:55;20.60;99.90
8892;DHT22;4482;54.332;10.118;2022-09-09T14:03:22;20.50;99.90
8892;DHT22;4482;54.332;10.118;2022-09-09T14:05:49;20.60;99.90
8892;DHT22;4482;54.332;10.118;2022-09-09T14:08:22;20.90;99.90
8892;DHT22;4482;54.332;10.118;2022-09-09T14:10:50;21.10;99.90
8892;DHT22;4482;54.332;10.118;2022-09-09T14:13:19;21.30;99.90
8892;DHT22;4482;54.332;10.118;2022-09-09T14:15:48;21.60;99.90
8892;DHT22;4482;54.332;10.118;2022-09-09T14:18:16;21.90;99.90
8892;DHT22;4482;54.332;10.118;2022-09-09T14:20:44;22.10;99.90
8892;DHT22;4482;54.332;10.118;2022-09-09T14:23:11;22.20;99.90
8892;DHT22;4482;54.332;10.118;2022-09-09T14:25:42;22.10;99.90
8892;DHT22;4482;54.332;10.118;2022-09-09T14:28:11;22.00;99.90
8892;DHT22;4482;54.332;10.118;2022-09-09T14:30:40;21.80;99.90
8892;DHT22;4482;54.332;10.118;2022-09-09T14:33:09;21.40;99.90
8892;DHT22;4482;54.332;10.118;2022-09-09T14:35:36;21.00;99.90
8892;DHT22;4482;54.332;10.118;2022-09-09T14:38:04;20.70;99.90
8892;DHT22;4482;54.332;10.118;2022-09-09T14:40:31;20.60;99.90
8892;DHT22;4482;54.332;10.118;2022-09-09T14:42:59;20.50;99.90
8892;DHT22;4482;54.332;10.118;2022-09-09T14:45:26;20.40;99.90
8892;DHT22;4482;54.332;10.118;2022-09-09T14:47:54;20.30;99.90
8892;DHT22;4482;54.332;10.118;2022-09-09T14:50:22;20.10;99.90
8892;DHT22;4482;54.332;10.118;2022-09-09T14:52:49;20.00;99.90
8892;DHT22;4482;54.332;10.118;2022-09-09T14:55:17;19.80;99.90
8892;DHT22;4482;54.332;10.118;2022-09-09T14:57:44;19.30;99.90
8892;DHT22;4482;54.332;10.118;2022-09-09T15:00:12;18.60;99.90
8892;DHT22;4482;54.332;10.118;2022-09-09T15:02:39;18.20;99.90
8892;DHT22;4482;54.332;10.118;2022-09-09T15:05:08;18.00;99.90
8892;DHT22;4482;54.332;10.118;2022-09-09T15:07:36;17.80;99.90
8892;DHT22;4482;54.332;10.118;2022-09-09T15:10:04;17.60;99.90
8892;DHT22;4482;54.332;10.118;2022-09-09T15:12:32;17.50;99.90
8892;DHT22;4482;54.332;10.118;2022-09-09T15:15:01;17.30;99.90
8892;DHT22;4482;54.332;10.118;2022-09-09T15:17:27;17.20;99.90
8892;DHT22;4482;54.332;10.118;2022-09-09T15:19:54;17.10;99.90
8892;DHT22;4482;54.332;10.118;2022-09-09T15:22:23;17.00;99.90
8892;DHT22;4482;54.332;10.118;2022-09-09T15:24:50;16.90;99.90
8892;DHT22;4482;54.332;10.118;2022-09-09T15:27:17;16.90;99.90
8892;DHT22;4482;54.332;10.118;2022-09-09T15:29:43;16.80;99.90
8892;DHT22;4482;54.332;10.118;2022-09-09T15:32:10;16.80;99.90
8892;DHT22;4482;54.332;10.118;2022-09-09T15:34:37;16.60;99.90
8892;DHT22;4482;54.332;10.118;2022-09-09T15:37:05;16.00;99.90
8892;DHT22;4482;54.332;10.118;2022-09-09T15:39:34;15.40;99.90
8892;DHT22;4482;54.332;10.118;2022-09-09T15:42:01;15.10;99.90
8892;DHT22;4482;54.332;10.118;2022-09-09T15:44:28;15.00;99.90
8892;DHT22;4482;54.332;10.118;2022-09-09T15:46:54;15.10;99.90
8892;DHT22;4482;54.332;10.118;2022-09-09T15:49:23;15.10;99.90
8892;DHT22;4482;54.332;10.118;2022-09-09T15:51:52;15.20;99.90
8892;DHT22;4482;54.332;10.118;2022-09-09T15:54:20;15.30;99.90
8892;DHT22;4482;54.332;10.118;2022-09-09T15:56:52;15.40;99.90
8892;DHT22;4482;54.332;10.118;2022-09-09T15:59:20;15.50;99.90
8892;DHT22;4482;54.332;10.118;2022-09-09T16:01:47;15.50;99.90
8892;DHT22;4482;54.332;10.118;2022-09-09T16:04:14;15.50;99.90
8892;DHT22;4482;54.332;10.118;2022-09-09T16:06:49;15.40;99.90
8892;DHT22;4482;54.332;10.118;2022-09-09T16:09:16;15.40;99.90
8892;DHT22;4482;54.332;10.118;2022-09-09T16:11:43;15.40;99.90
8892;DHT22;4482;54.332;10.118;2022-09-09T16:14:11;15.40;99.90
8892;DHT22;4482;54.332;10.118;2022-09-09T16:16:38;15.40;99.90
8892;DHT22;4482;54.332;10.118;2022-09-09T16:19:08;15.40;99.90
8892;DHT22;4482;54.332;10.118;2022-09-09T16:21:38;15.50;99.90
8892;DHT22;4482;54.332;10.118;2022-09-09T16:24:06;15.40;99.90
8892;DHT22;4482;54.332;10.118;2022-09-09T16:26:35;15.40;99.90
8892;DHT22;4482;54.332;10.118;2022-09-09T16:29:02;15.40;99.90
8892;DHT22;4482;54.332;10.118;2022-09-09T16:31:31;15.40;99.90
8892;DHT22;4482;54.332;10.118;2022-09-09T16:33:58;15.40;99.90
8892;DHT22;4482;54.332;10.118;2022-09-09T16:36:27;15.40;99.90
8892;DHT22;4482;54.332;10.118;2022-09-09T16:38:59;15.30;99.90
8892;DHT22;4482;54.332;10.118;2022-09-09T16:41:32;15.30;99.90
8892;DHT22;4482;54.332;10.118;2022-09-09T16:44:19;15.20;99.90
8892;DHT22;4482;54.332;10.118;2022-09-09T16:47:12;15.20;99.90
8892;DHT22;4482;54.332;10.118;2022-09-09T16:50:17;15.10;99.90
8892;DHT22;4482;54.332;10.118;2022-09-09T16:53:04;15.10;99.90
8892;DHT22;4482;54.332;10.118;2022-09-09T16:55:40;15.10;99.90
8892;DHT22;4482;54.332;10.118;2022-09-09T16:58:12;15.10;99.90
8892;DHT22;4482;54.332;10.118;2022-09-09T17:00:47;15.10;99.90
8892;DHT22;4482;54.332;10.118;2022-09-09T17:03:18;15.10;99.90
8892;DHT22;4482;54.332;10.118;2022-09-09T17:05:46;15.10;99.90
8892;DHT22;4482;54.332;10.118;2022-09-09T17:08:14;15.00;99.90
8892;DHT22;4482;54.332;10.118;2022-09-09T17:10:41;15.00;99.90
8892;DHT22;4482;54.332;10.118;2022-09-09T17:13:08;15.00;99.90
8892;DHT22;4482;54.332;10.118;2022-09-09T17:15:39;15.10;99.90
8892;DHT22;4482;54.332;10.118;2022-09-09T17:18:08;15.10;99.90
8892;DHT22;4482;54.332;10.118;2022-09-09T17:20:37;15.10;99.90
8892;DHT22;4482;54.332;10.118;2022-09-09T17:23:05;15.10;99.90
8892;DHT22;4482;54.332;10.118;2022-09-09T17:25:32;15.10;99.90
8892;DHT22;4482;54.332;10.118;2022-09-09T17:27:59;15.10;99.90
8892;DHT22;4482;54.332;10.118;2022-09-09T17:30:28;15.10;99.90
8892;DHT22;4482;54.332;10.118;2022-09-09T17:32:55;15.10;99.90
8892;DHT22;4482;54.332;10.118;2022-09-09T17:35:22;15.10;99.90
8892;DHT22;4482;54.332;10.118;2022-09-09T17:37:52;15.20;99.90
8892;DHT22;4482;54.332;10.118;2022-09-09T17:40:19;15.20;99.90
8892;DHT22;4482;54.332;10.118;2022-09-09T17:42:47;15.20;99.90
8892;DHT22;4482;54.332;10.118;2022-09-09T17:45:14;15.20;99.90
8892;DHT22;4482;54.332;10.118;2022-09-09T17:47:42;15.20;99.90
8892;DHT22;4482;54.332;10.118;2022-09-09T17:50:10;15.20;99.90
8892;DHT22;4482;54.332;10.118;2022-09-09T17:52:38;15.10;99.90
8892;DHT22;4482;54.332;10.118;2022-09-09T17:55:10;15.00;99.90
8892;DHT22;4482;54.332;10.118;2022-09-09T17:57:37;15.00;99.90
8892;DHT22;4482;54.332;10.118;2022-09-09T18:00:06;15.00;99.90
8892;DHT22;4482;54.332;10.118;2022-09-09T18:02:33;15.00;99.90
8892;DHT22;4482;54.332;10.118;2022-09-09T18:05:00;15.00;99.90
8892;DHT22;4482;54.332;10.118;2022-09-09T18:07:27;14.90;99.90
8892;DHT22;4482;54.332;10.118;2022-09-09T18:09:54;15.00;99.90
8892;DHT22;4482;54.332;10.118;2022-09-09T18:12:22;15.00;99.90
8892;DHT22;4482;54.332;10.118;2022-09-09T18:14:49;15.00;99.90
8892;DHT22;4482;54.332;10.118;2022-09-09T18:17:17;15.00;99.90
8892;DHT22;4482;54.332;10.118;2022-09-09T18:19:43;15.00;99.90
8892;DHT22;4482;54.332;10.118;2022-09-09T18:22:10;15.00;99.90
8892;DHT22;4482;54.332;10.118;2022-09-09T18:24:37;15.00;99.90
8892;DHT22;4482;54.332;10.118;2022-09-09T18:27:04;15.00;99.90
8892;DHT22;4482;54.332;10.118;2022-09-09T18:29:33;14.90;99.90
8892;DHT22;4482;54.332;10.118;2022-09-09T18:32:00;15.00;99.90
8892;DHT22;4482;54.332;10.118;2022-09-09T18:34:27;15.00;99.90
8892;DHT22;4482;54.332;10.118;2022-09-09T18:36:54;14.90;99.90